Time;durP1;ratioP1;P1;durP2;ratioP2;P2;SDS_P1;SDS_P2;PMS_P1;PMS_P2;Temp;Humidity;BMP_temperature;BMP_pressure;BME280_temperature;BME280_humidity;BME280_pressure;Samples;Min_cycle;Max_cycle;Signal;HPM_P1;HPM_P2
2021/03/02 00:02:58;;;;;;;76.40;36.97;;;;;;;4.13;71.65;101941.95;147710;1147;104572;-80
2021/03/02 00:06:02;;;;;;;72.90;35.35;;;;;;;4.15;72.39;101940.10;147732;1147;104474;-87
2021/03/02 00:09:07;;;;;;;71.07;34.03;;;;;;;4.23;71.55;101932.67;147778;1147;104625;-81
2021/03/02 00:12:10;;;;;;;70.47;33.85;;;;;;;4.27;72.31;101944.84;147638;1147;104532;-82
2021/03/02 00:15:15;;;;;;;88.10;42.13;;;;;;;4.15;72.44;101945.39;147655;1147;104461;-82
2021/03/02 00:18:20;;;;;;;84.60;40.00;;;;;;;4.09;71.57;101950.95;147374;1147;104535;-78
2021/03/02 00:21:32;;;;;;;85.80;37.67;;;;;;;4.06;71.68;101948.44;147661;1147;104550;-87
2021/03/02 00:24:37;;;;;;;89.37;40.40;;;;;;;4.10;71.97;101953.53;147537;1147;104873;-82
2021/03/02 00:27:41;;;;;;;90.35;42.25;;;;;;;4.18;72.16;101949.69;147482;1148;104556;-79
2021/03/02 00:30:48;;;;;;;89.45;45.23;;;;;;;4.23;71.49;101952.96;147631;1147;104527;-76
2021/03/02 00:33:51;;;;;;;76.67;38.10;;;;;;;4.15;72.31;101955.95;147439;1147;104824;-76
2021/03/02 00:36:55;;;;;;;101.20;51.23;;;;;;;4.20;71.87;101947.84;147628;1147;104505;-77
2021/03/02 00:39:58;;;;;;;85.03;41.40;;;;;;;4.26;71.52;101958.12;147446;1147;104447;-75
2021/03/02 00:43:01;;;;;;;83.95;42.20;;;;;;;4.23;71.81;101945.88;147639;1147;104549;-80
2021/03/02 00:46:04;;;;;;;86.02;40.52;;;;;;;4.22;71.94;101949.47;147628;1146;104544;-82
2021/03/02 00:49:08;;;;;;;85.95;39.80;;;;;;;4.19;72.35;101946.11;147394;1146;104658;-82
2021/03/02 00:52:11;;;;;;;79.60;35.85;;;;;;;4.18;72.00;101947.90;147723;1148;104556;-80
2021/03/02 00:55:14;;;;;;;73.07;34.35;;;;;;;4.04;72.48;101945.02;147833;1147;104528;-82
2021/03/02 00:58:18;;;;;;;69.32;34.85;;;;;;;4.00;72.54;101939.00;147589;1146;104973;-79
2021/03/02 01:01:23;;;;;;;77.60;39.43;;;;;;;3.97;72.46;101938.31;147737;1148;104659;-81
2021/03/02 01:04:28;;;;;;;77.97;37.60;;;;;;;3.96;71.86;101933.94;147772;1147;104636;-79
2021/03/02 01:07:33;;;;;;;75.70;36.03;;;;;;;3.94;72.67;101931.36;147713;1147;104549;-79
2021/03/02 01:10:37;;;;;;;90.12;45.50;;;;;;;4.00;71.85;101930.23;147734;1147;104534;-79
2021/03/02 01:13:40;;;;;;;78.67;39.25;;;;;;;4.05;72.51;101923.81;147661;1147;104474;-84
2021/03/02 01:16:43;;;;;;;91.65;40.90;;;;;;;4.11;71.83;101938.53;147693;1147;104528;-81
2021/03/02 01:19:47;;;;;;;95.32;44.33;;;;;;;4.22;71.67;101923.05;147781;1147;104633;-79
2021/03/02 01:22:50;;;;;;;69.62;34.65;;;;;;;4.33;72.26;101923.41;147826;1147;104662;-84
2021/03/02 01:25:53;;;;;;;77.12;38.02;;;;;;;4.43;71.63;101909.77;147712;1146;104494;-78
2021/03/02 01:28:56;;;;;;;100.00;49.13;;;;;;;4.46;71.83;101912.25;147712;1147;104503;-78
2021/03/02 01:32:00;;;;;;;97.50;47.13;;;;;;;4.53;71.78;101905.75;147784;1147;104473;-77
2021/03/02 01:35:04;;;;;;;77.05;38.60;;;;;;;4.54;71.85;101899.52;147572;1147;104575;-74
2021/03/02 01:38:08;;;;;;;104.30;52.00;;;;;;;4.53;72.16;101895.17;147612;1147;104533;-77
2021/03/02 01:41:11;;;;;;;111.60;57.78;;;;;;;4.51;71.90;101884.67;147561;1147;104983;-77
2021/03/02 01:44:14;;;;;;;99.50;49.60;;;;;;;4.49;71.86;101885.68;147564;1146;104507;-75
2021/03/02 01:47:17;;;;;;;98.85;49.10;;;;;;;4.46;71.44;101884.02;147672;1145;104439;-78
2021/03/02 01:50:22;;;;;;;122.05;48.50;;;;;;;4.46;71.83;101883.17;147652;1146;104640;-80
2021/03/02 01:53:25;;;;;;;86.97;42.30;;;;;;;4.47;71.79;101877.81;147742;1147;104474;-77
2021/03/02 01:56:29;;;;;;;122.30;60.45;;;;;;;4.54;71.70;101883.66;147529;1147;104643;-84
2021/03/02 01:59:32;;;;;;;89.25;43.85;;;;;;;4.53;71.62;101872.23;147421;1147;104473;-84
2021/03/02 02:02:43;;;;;;;95.87;43.58;;;;;;;4.53;71.88;101871.38;147458;1147;104556;-85
2021/03/02 02:05:51;;;;;;;103.53;50.63;;;;;;;4.52;71.82;101870.53;147765;1146;104525;-79
2021/03/02 02:09:00;;;;;;;88.40;46.88;;;;;;;4.50;71.77;101868.88;147774;1147;104506;-76
2021/03/02 02:12:09;;;;;;;87.57;44.27;;;;;;;4.50;71.19;101869.75;147770;1148;104477;-76
2021/03/02 02:15:15;;;;;;;106.00;48.98;;;;;;;4.52;71.72;101874.94;147805;1147;104478;-82
2021/03/02 02:18:22;;;;;;;97.47;52.60;;;;;;;4.47;71.85;101863.76;147764;1147;104547;-78
2021/03/02 02:21:37;;;;;;;80.23;39.67;;;;;;;4.44;72.01;101866.53;147756;1148;104892;-80
2021/03/02 02:24:58;;;;;;;119.15;59.13;;;;;;;4.43;71.87;101865.69;147752;1147;104545;-83
2021/03/02 02:28:03;;;;;;;90.65;44.35;;;;;;;4.50;71.66;101869.75;147757;1147;104470;-83
2021/03/02 02:31:09;;;;;;;113.68;57.83;;;;;;;4.53;71.41;101863.45;147717;1148;104429;-81
2021/03/02 02:34:16;;;;;;;131.20;64.12;;;;;;;4.57;71.73;101862.37;147784;1147;104547;-81
2021/03/02 02:37:21;;;;;;;120.70;53.17;;;;;;;4.60;71.47;101859.59;147368;1146;104538;-80
2021/03/02 02:40:25;;;;;;;139.70;59.20;;;;;;;4.61;71.80;101848.06;147551;1147;104669;-77
2021/03/02 02:43:29;;;;;;;87.60;41.53;;;;;;;4.60;72.10;101846.37;147531;1147;104554;-77
2021/03/02 02:46:34;;;;;;;102.12;49.25;;;;;;;4.53;71.86;101853.73;147613;1147;104544;-77
2021/03/02 02:49:39;;;;;;;94.07;43.02;;;;;;;4.47;72.15;101845.25;147569;1147;104461;-75
2021/03/02 02:52:43;;;;;;;77.27;35.52;;;;;;;4.46;72.01;101840.88;147649;1147;104625;-75
2021/03/02 02:55:51;;;;;;;103.22;45.20;;;;;;;4.47;72.00;101842.61;147738;1147;104464;-75
2021/03/02 02:59:03;;;;;;;85.87;41.37;;;;;;;4.50;72.34;101843.32;147594;1147;104470;-82
2021/03/02 03:02:10;;;;;;;85.43;41.87;;;;;;;4.55;72.12;101831.66;147814;1148;104487;-81
2021/03/02 03:05:18;;;;;;;73.85;34.83;;;;;;;4.58;72.25;101824.44;147598;1146;104495;-81
2021/03/02 03:08:24;;;;;;;94.58;42.65;;;;;;;4.58;72.36;101821.80;147776;1147;104626;-81
2021/03/02 03:11:35;;;;;;;81.17;36.42;;;;;;;4.52;71.96;101820.31;147949;1147;104628;-83
2021/03/02 03:14:44;;;;;;;84.65;40.52;;;;;;;4.49;72.16;101814.31;147605;1147;104476;-80
2021/03/02 03:17:51;;;;;;;83.05;41.40;;;;;;;4.42;72.55;101802.32;147692;1147;104477;-80
2021/03/02 03:20:59;;;;;;;70.10;33.48;;;;;;;4.40;72.21;101801.55;147551;1147;104461;-80
2021/03/02 03:24:04;;;;;;;84.05;35.98;;;;;;;4.41;72.17;101801.47;147752;1147;104544;-78
2021/03/02 03:27:08;;;;;;;82.65;34.43;;;;;;;4.49;72.43;101801.95;147696;1147;104500;-79
2021/03/02 03:30:15;;;;;;;69.90;36.53;;;;;;;4.53;72.26;101794.72;147446;1146;104578;-80
2021/03/02 03:33:20;;;;;;;75.72;38.28;;;;;;;4.53;72.50;101806.14;147671;1147;104464;-79
2021/03/02 03:36:25;;;;;;;71.00;34.10;;;;;;;4.55;72.16;101794.66;147674;1147;104496;-76
2021/03/02 03:39:28;;;;;;;77.45;40.85;;;;;;;4.53;72.68;101806.14;147717;1147;104572;-78
2021/03/02 03:42:31;;;;;;;91.43;43.30;;;;;;;4.51;72.06;101808.01;147527;1148;104460;-82
2021/03/02 03:45:34;;;;;;;66.30;33.37;;;;;;;4.49;72.16;101801.95;147548;1146;104547;-77
2021/03/02 03:48:38;;;;;;;91.93;36.90;;;;;;;4.45;72.28;101816.25;147607;1147;104566;-77
2021/03/02 03:51:42;;;;;;;68.50;34.00;;;;;;;4.47;72.79;101808.25;147744;1147;104454;-74
2021/03/02 03:54:47;;;;;;;72.05;33.70;;;;;;;4.50;72.11;101818.66;147950;1147;104659;-70
2021/03/02 03:57:51;;;;;;;90.25;40.98;;;;;;;4.53;72.55;101829.94;147616;1147;104477;-76
2021/03/02 04:00:56;;;;;;;66.87;33.47;;;;;;;4.58;72.27;101829.73;147761;1147;104553;-73
2021/03/02 04:03:59;;;;;;;87.40;39.50;;;;;;;4.58;72.52;101823.56;147751;1147;104466;-73
2021/03/02 04:07:03;;;;;;;66.43;33.43;;;;;;;4.54;72.64;101825.49;147870;1147;104585;-79
2021/03/02 04:10:09;;;;;;;54.67;28.23;;;;;;;4.49;72.68;101831.02;147762;1148;104513;-76
2021/03/02 04:13:14;;;;;;;129.10;63.10;;;;;;;4.39;72.50;101836.81;147914;1147;104461;-76
2021/03/02 04:16:17;;;;;;;207.52;92.80;;;;;;;4.32;72.24;101837.12;147840;1147;104466;-76
2021/03/02 04:19:20;;;;;;;219.53;87.27;;;;;;;4.33;72.72;101830.91;147754;1145;105000;-75
2021/03/02 04:22:24;;;;;;;57.38;29.37;;;;;;;4.38;72.77;101828.04;147772;1147;104543;-79
2021/03/02 04:25:27;;;;;;;146.25;69.40;;;;;;;4.42;72.77;101829.59;147757;1147;104549;-74
2021/03/02 04:28:30;;;;;;;158.90;67.10;;;;;;;4.49;73.05;101822.24;147774;1147;104470;-75
2021/03/02 04:31:33;;;;;;;122.53;54.23;;;;;;;4.46;72.80;101822.38;147511;1147;104473;-79
2021/03/02 04:34:37;;;;;;;132.35;64.95;;;;;;;4.49;72.70;101822.24;147755;1147;104880;-75
2021/03/02 04:37:40;;;;;;;97.10;48.80;;;;;;;4.50;72.40;101823.94;147597;1147;104581;-75
2021/03/02 04:40:43;;;;;;;171.85;68.97;;;;;;;4.46;72.80;101823.23;147761;1146;104611;-77
2021/03/02 04:43:46;;;;;;;172.30;73.80;;;;;;;4.45;72.76;101820.69;147782;1147;104558;-75
2021/03/02 04:46:49;;;;;;;127.65;48.38;;;;;;;4.49;72.76;101816.95;147712;1147;104458;-76
2021/03/02 04:49:53;;;;;;;85.10;40.08;;;;;;;4.54;73.30;101828.14;147569;1147;104898;-75
2021/03/02 04:52:56;;;;;;;57.30;30.12;;;;;;;4.47;72.45;101818.82;147756;1147;104649;-76
2021/03/02 04:55:59;;;;;;;118.15;49.10;;;;;;;4.46;72.79;101812.66;147743;1147;104619;-75
2021/03/02 04:59:02;;;;;;;61.90;30.15;;;;;;;4.50;72.42;101818.66;147789;1146;104528;-81
2021/03/02 05:02:06;;;;;;;105.60;42.23;;;;;;;4.46;72.57;101828.52;147758;1147;104585;-75
2021/03/02 05:05:11;;;;;;;58.33;28.10;;;;;;;4.40;73.27;101826.17;147718;1147;104475;-76
2021/03/02 05:08:14;;;;;;;80.77;36.70;;;;;;;4.41;73.00;101825.26;147503;1146;104591;-75
2021/03/02 05:11:18;;;;;;;92.17;37.80;;;;;;;4.35;73.40;101822.92;147250;1148;104665;-75
2021/03/02 05:14:21;;;;;;;102.22;40.85;;;;;;;4.40;73.06;101817.40;147643;1147;104519;-75
2021/03/02 05:17:24;;;;;;;89.00;36.20;;;;;;;4.48;72.58;101815.23;147785;1146;104448;-75
2021/03/02 05:20:28;;;;;;;220.35;85.03;;;;;;;4.54;72.66;101812.28;147425;1147;104510;-79
2021/03/02 05:23:31;;;;;;;138.57;71.95;;;;;;;4.59;72.23;101804.98;147628;1147;104484;-74
2021/03/02 05:26:34;;;;;;;162.10;74.55;;;;;;;4.58;73.04;101799.77;147465;1147;104669;-74
2021/03/02 05:29:37;;;;;;;142.85;71.70;;;;;;;4.58;72.78;101795.36;147679;1147;105518;-74
2021/03/02 05:32:40;;;;;;;90.42;43.52;;;;;;;4.57;72.66;101793.63;147738;1147;104507;-73
2021/03/02 05:35:44;;;;;;;225.93;96.13;;;;;;;4.57;72.95;101792.78;147740;1147;104473;-76
2021/03/02 05:38:47;;;;;;;113.03;50.53;;;;;;;4.53;73.37;101792.08;147436;1147;104570;-71
2021/03/02 05:41:51;;;;;;;94.42;44.08;;;;;;;4.51;73.35;101791.30;147735;1147;105014;-74
2021/03/02 05:44:55;;;;;;;81.45;39.92;;;;;;;4.54;72.68;101793.77;147767;1147;104663;-74
2021/03/02 05:47:59;;;;;;;237.90;104.13;;;;;;;4.56;72.81;101797.22;147449;1147;104515;-73
2021/03/02 05:51:03;;;;;;;314.88;168.72;;;;;;;4.58;73.03;101795.36;147593;1147;104497;-73
2021/03/02 05:54:08;;;;;;;112.03;60.80;;;;;;;4.60;72.90;101792.61;147535;1146;104569;-76
2021/03/02 05:57:12;;;;;;;66.97;34.85;;;;;;;4.55;72.96;101799.94;147342;1147;104598;-74
2021/03/02 06:00:17;;;;;;;94.53;46.63;;;;;;;4.48;72.92;101794.08;147381;1147;104652;-72
2021/03/02 06:03:20;;;;;;;81.72;39.95;;;;;;;4.47;73.12;101785.31;148111;1147;104546;-74
2021/03/02 06:06:23;;;;;;;64.27;29.98;;;;;;;4.53;73.16;101776.22;147744;1147;104549;-73
2021/03/02 06:09:26;;;;;;;81.55;37.42;;;;;;;4.60;73.17;101782.04;147806;1146;104546;-74
2021/03/02 06:12:29;;;;;;;100.25;51.85;;;;;;;4.61;73.42;101774.03;147786;1147;104661;-75
2021/03/02 06:15:33;;;;;;;81.93;40.40;;;;;;;4.65;72.73;101767.66;147765;1148;104557;-73
2021/03/02 06:18:48;;;;;;;149.60;76.40;;;;;;;4.70;72.69;101776.22;147605;1147;104469;-74
2021/03/02 06:21:51;;;;;;;96.53;47.80;;;;;;;4.69;73.06;101771.86;147447;1147;104572;-75
2021/03/02 06:24:54;;;;;;;125.30;67.62;;;;;;;4.67;72.87;101776.37;147692;1146;104524;-73
2021/03/02 06:27:58;;;;;;;84.50;41.33;;;;;;;4.67;73.21;101786.09;147302;1147;104625;-75
2021/03/02 06:31:01;;;;;;;79.12;40.03;;;;;;;4.72;73.06;101784.94;147367;1147;104647;-74
2021/03/02 06:34:12;;;;;;;64.58;33.10;;;;;;;4.79;73.19;101792.55;147623;1147;104460;-72
2021/03/02 06:37:15;;;;;;;65.97;35.33;;;;;;;4.78;73.14;101791.70;147672;1146;104540;-76
2021/03/02 06:40:36;;;;;;;61.00;31.20;;;;;;;4.84;73.18;101791.38;147786;1147;104551;-74
2021/03/02 06:43:40;;;;;;;67.42;35.10;;;;;;;4.84;73.18;101772.87;147756;1147;104549;-74
2021/03/02 06:46:44;;;;;;;69.37;32.77;;;;;;;4.86;72.69;101767.51;147606;1147;104612;-77
2021/03/02 06:49:47;;;;;;;60.17;31.40;;;;;;;4.78;72.98;101789.05;147606;1147;104528;-74
2021/03/02 06:52:51;;;;;;;70.10;32.63;;;;;;;4.76;73.27;101795.37;147558;1146;104591;-74
2021/03/02 06:56:10;;;;;;;78.17;39.83;;;;;;;4.85;73.12;101790.47;147705;1148;104547;-74
2021/03/02 06:59:16;;;;;;;57.58;28.45;;;;;;;4.93;73.01;101784.78;147753;1147;104530;-76
2021/03/02 07:02:33;;;;;;;74.53;39.83;;;;;;;5.00;73.07;101783.50;147765;1146;105042;-74
2021/03/02 07:05:46;;;;;;;67.17;35.28;;;;;;;5.05;73.21;101789.42;147479;1146;104441;-74
2021/03/02 07:08:49;;;;;;;172.95;76.22;;;;;;;5.16;72.73;101794.17;147605;1147;104481;-73
2021/03/02 07:11:57;;;;;;;93.87;43.73;;;;;;;5.17;73.03;101795.02;147703;1147;104444;-73
2021/03/02 07:15:02;;;;;;;493.97;282.85;;;;;;;5.17;73.05;101795.02;147787;1147;104612;-74
2021/03/02 07:18:06;;;;;;;405.43;205.15;;;;;;;5.20;72.79;101793.06;147829;1147;104562;-76
2021/03/02 07:21:10;;;;;;;742.50;469.50;;;;;;;5.30;72.42;101788.14;147437;1147;104469;-73
2021/03/02 07:24:14;;;;;;;355.73;214.67;;;;;;;5.38;73.08;101788.58;147253;1148;104578;-73
2021/03/02 07:27:21;;;;;;;189.63;104.63;;;;;;;5.51;73.10;101792.28;147733;1146;104658;-75
2021/03/02 07:30:25;;;;;;;310.45;149.25;;;;;;;5.65;72.98;101793.34;147479;1147;104572;-74
2021/03/02 07:33:28;;;;;;;370.85;171.40;;;;;;;5.77;72.28;101797.95;147394;1147;104911;-73
2021/03/02 07:36:36;;;;;;;203.12;92.25;;;;;;;5.82;72.46;101790.62;147550;1147;104550;-73
2021/03/02 07:39:59;;;;;;;126.42;62.35;;;;;;;5.89;72.08;101791.15;147502;1147;104457;-73
2021/03/02 07:43:30;;;;;;;100.67;54.05;;;;;;;5.81;72.07;101786.27;147816;1147;104916;-76
2021/03/02 07:46:53;;;;;;;58.58;30.00;;;;;;;5.86;72.17;101791.30;147764;1147;104591;-78
2021/03/02 07:50:16;;;;;;;53.85;28.95;;;;;;;5.87;72.53;101787.70;147821;1147;104557;-73
2021/03/02 07:53:23;;;;;;;63.80;31.10;;;;;;;5.99;72.28;101775.63;147772;1147;104540;-73
2021/03/02 07:56:27;;;;;;;74.27;35.60;;;;;;;6.16;71.32;101759.63;147525;1147;104540;-75
2021/03/02 07:59:30;;;;;;;53.85;29.52;;;;;;;6.33;72.43;101760.44;147221;1147;104876;-75
2021/03/02 08:02:33;;;;;;;57.90;31.07;;;;;;;6.46;72.23;101764.94;147616;1147;104602;-74
2021/03/02 08:05:37;;;;;;;52.05;26.97;;;;;;;6.43;70.54;101780.19;147741;1147;104607;-73
2021/03/02 08:08:40;;;;;;;52.85;28.45;;;;;;;6.39;71.40;101783.94;147633;1147;104519;-74
2021/03/02 08:11:43;;;;;;;53.33;27.17;;;;;;;6.35;70.92;101782.41;147489;1147;104457;-75
2021/03/02 08:14:47;;;;;;;54.80;29.67;;;;;;;6.36;71.36;101778.83;147796;1147;104543;-73
2021/03/02 08:17:50;;;;;;;61.45;34.48;;;;;;;6.46;70.57;101777.34;147706;1147;104630;-76
2021/03/02 08:21:08;;;;;;;72.05;39.55;;;;;;;6.53;71.43;101769.91;147806;1147;104448;-71
2021/03/02 08:24:11;;;;;;;107.37;55.33;;;;;;;6.65;71.25;101779.78;147770;1147;104911;-73
2021/03/02 08:27:15;;;;;;;72.37;36.30;;;;;;;6.66;71.26;101786.81;147778;1147;104841;-75
2021/03/02 08:30:21;;;;;;;67.50;36.97;;;;;;;6.79;71.54;101786.92;147759;1147;104426;-73
2021/03/02 08:33:27;;;;;;;58.10;31.93;;;;;;;6.80;69.84;101784.18;147719;1147;104588;-73
2021/03/02 08:36:31;;;;;;;60.33;31.77;;;;;;;6.83;70.13;101761.91;147234;1147;104938;-74
2021/03/02 08:39:34;;;;;;;65.67;33.37;;;;;;;6.86;69.88;101761.73;147208;1147;104409;-74
2021/03/02 08:42:38;;;;;;;60.30;32.00;;;;;;;6.85;70.01;101757.36;147171;1147;104548;-74
2021/03/02 08:45:43;;;;;;;62.03;31.97;;;;;;;6.82;70.88;101761.06;147206;1147;104529;-74
2021/03/02 08:48:46;;;;;;;60.03;31.48;;;;;;;6.83;70.47;101768.09;147365;1147;104660;-78
2021/03/02 08:51:57;;;;;;;69.45;33.92;;;;;;;6.79;70.59;101765.70;147481;1148;104424;-73
2021/03/02 08:55:00;;;;;;;67.05;31.00;;;;;;;6.83;70.27;101776.05;147214;1147;104941;-74
2021/03/02 08:58:04;;;;;;;61.90;30.80;;;;;;;6.87;70.35;101774.04;147637;1147;104545;-77
2021/03/02 09:01:09;;;;;;;62.13;31.20;;;;;;;6.92;70.56;101771.98;147790;1146;104470;-73
2021/03/02 09:04:14;;;;;;;62.60;31.13;;;;;;;6.97;70.48;101780.53;147735;1146;104649;-73
2021/03/02 09:07:23;;;;;;;68.07;35.30;;;;;;;7.00;69.21;101768.86;147852;1146;104639;-76
2021/03/02 09:10:27;;;;;;;313.52;147.78;;;;;;;6.97;70.32;101764.60;147757;1147;104444;-73
2021/03/02 09:13:36;;;;;;;156.13;68.63;;;;;;;7.02;70.92;101767.81;147639;1147;104528;-73
2021/03/02 09:16:41;;;;;;;122.13;56.30;;;;;;;7.03;69.10;101774.00;147754;1146;104546;-73
2021/03/02 09:19:44;;;;;;;138.50;73.90;;;;;;;6.99;69.45;101785.75;147744;1147;104564;-75
2021/03/02 09:22:48;;;;;;;116.57;53.53;;;;;;;6.90;69.33;101799.56;147547;1146;104505;-74
2021/03/02 09:25:53;;;;;;;66.92;33.65;;;;;;;6.85;69.51;101791.86;147308;1147;104450;-73
2021/03/02 09:28:59;;;;;;;66.62;29.12;;;;;;;6.78;70.02;101801.14;147668;1146;104495;-75
2021/03/02 09:32:05;;;;;;;69.17;32.73;;;;;;;6.74;69.40;101802.27;147891;1146;104552;-73
2021/03/02 09:35:10;;;;;;;79.87;39.65;;;;;;;6.89;69.25;101798.72;147773;1147;104547;-75
2021/03/02 09:38:29;;;;;;;71.75;37.28;;;;;;;6.99;69.02;101797.20;147746;1147;104541;-76
2021/03/02 09:41:37;;;;;;;104.43;50.10;;;;;;;7.15;69.74;101802.44;147667;1147;104484;-77
2021/03/02 09:44:45;;;;;;;57.48;29.30;;;;;;;7.11;68.45;101797.42;147737;1147;104454;-72
2021/03/02 09:47:57;;;;;;;84.85;42.40;;;;;;;7.10;69.39;101798.35;147596;1147;104456;-75
2021/03/02 09:51:00;;;;;;;72.08;36.20;;;;;;;7.17;69.23;101797.05;147658;1147;104503;-74
2021/03/02 09:54:15;;;;;;;59.13;31.23;;;;;;;7.16;69.93;101803.28;147757;1146;104460;-74
2021/03/02 09:57:18;;;;;;;56.07;28.13;;;;;;;7.17;68.96;101810.31;147809;1147;104553;-75
2021/03/02 10:00:27;;;;;;;50.43;26.10;;;;;;;7.13;68.99;101816.77;147743;1147;104546;-75
2021/03/02 10:03:36;;;;;;;56.90;25.67;;;;;;;7.06;67.42;101819.79;147773;1147;104649;-76
2021/03/02 10:06:39;;;;;;;57.15;29.85;;;;;;;7.15;68.98;101804.25;147735;1147;104528;-75
2021/03/02 10:09:49;;;;;;;55.50;30.27;;;;;;;7.31;68.99;101799.70;147794;1147;104927;-74
2021/03/02 10:13:01;;;;;;;55.83;28.25;;;;;;;7.38;68.63;101795.73;147754;1147;104485;-73
2021/03/02 10:16:24;;;;;;;53.55;28.65;;;;;;;7.44;68.84;101782.06;147735;1146;104805;-74
2021/03/02 10:19:30;;;;;;;47.53;25.50;;;;;;;7.56;68.42;101782.25;147779;1147;104511;-73
2021/03/02 10:22:33;;;;;;;52.33;25.70;;;;;;;7.54;67.59;101777.03;147680;1146;104691;-72
2021/03/02 10:25:42;;;;;;;49.03;25.55;;;;;;;7.58;68.52;101796.28;147480;1147;104466;-73
2021/03/02 10:28:45;;;;;;;54.03;26.10;;;;;;;7.53;67.21;101793.09;147706;1146;104499;-74
2021/03/02 10:31:48;;;;;;;45.73;23.15;;;;;;;7.47;67.55;101792.51;147537;1147;104547;-74
2021/03/02 10:34:52;;;;;;;49.53;24.77;;;;;;;7.47;67.60;101789.85;147469;1147;104538;-75
2021/03/02 10:37:55;;;;;;;49.75;25.77;;;;;;;7.47;67.19;101792.51;147285;1147;104633;-75
2021/03/02 10:40:58;;;;;;;49.88;25.10;;;;;;;7.55;67.40;101777.91;147684;1147;104463;-74
2021/03/02 10:44:02;;;;;;;54.25;26.25;;;;;;;7.65;67.89;101779.02;147572;1147;104521;-73
2021/03/02 10:47:06;;;;;;;48.08;24.50;;;;;;;7.77;66.98;101772.92;147754;1147;104441;-76
2021/03/02 10:50:11;;;;;;;48.92;26.80;;;;;;;7.92;67.66;101780.88;147621;1148;104500;-74
2021/03/02 10:53:15;;;;;;;58.85;28.05;;;;;;;8.00;66.98;101770.60;147757;1147;104643;-75
2021/03/02 10:56:18;;;;;;;55.00;29.50;;;;;;;8.10;65.86;101763.72;147611;1147;104444;-78
2021/03/02 10:59:22;;;;;;;48.08;26.80;;;;;;;8.18;66.67;101753.46;147694;1146;104491;-73
2021/03/02 11:02:25;;;;;;;46.33;25.27;;;;;;;8.22;66.68;101760.28;147586;1147;104488;-74
2021/03/02 11:05:28;;;;;;;46.42;24.30;;;;;;;8.25;66.98;101738.79;147608;1146;104525;-74
2021/03/02 11:08:31;;;;;;;113.72;55.88;;;;;;;8.33;66.99;101740.09;147465;1147;104473;-74
2021/03/02 11:11:34;;;;;;;151.47;68.83;;;;;;;8.40;67.01;101742.24;147653;1146;104563;-73
2021/03/02 11:14:37;;;;;;;236.52;98.62;;;;;;;8.47;66.81;101748.05;147849;1147;104486;-74
2021/03/02 11:17:40;;;;;;;119.17;51.97;;;;;;;8.53;66.94;101746.80;147485;1147;104473;-74
2021/03/02 11:20:44;;;;;;;58.87;29.42;;;;;;;8.53;65.68;101741.47;147589;1147;104506;-73
2021/03/02 11:23:47;;;;;;;51.27;26.10;;;;;;;8.50;65.38;101753.16;147673;1147;104611;-75
2021/03/02 11:26:51;;;;;;;94.15;42.55;;;;;;;8.49;65.87;101748.80;147778;1147;104517;-70
2021/03/02 11:29:54;;;;;;;64.65;32.48;;;;;;;8.50;65.96;101744.33;147477;1147;104544;-74
2021/03/02 11:32:57;;;;;;;86.17;41.80;;;;;;;8.49;66.12;101740.82;147645;1147;104470;-76
2021/03/02 11:36:00;;;;;;;47.30;23.60;;;;;;;8.53;64.36;101739.66;147638;1147;104499;-74
2021/03/02 11:39:04;;;;;;;59.17;34.33;;;;;;;8.64;65.17;101731.80;147704;1146;104559;-73
2021/03/02 11:42:07;;;;;;;79.25;37.23;;;;;;;8.72;65.14;101719.77;147759;1147;104604;-74
2021/03/02 11:45:13;;;;;;;46.45;24.72;;;;;;;8.75;62.61;101714.23;147723;1147;104550;-74
2021/03/02 11:48:16;;;;;;;50.30;25.95;;;;;;;8.80;65.04;101715.63;147790;1147;104477;-73
2021/03/02 11:51:19;;;;;;;38.95;22.05;;;;;;;8.79;63.60;101713.91;147400;1147;104607;-74
2021/03/02 11:54:22;;;;;;;45.48;24.85;;;;;;;8.83;64.46;101715.44;147722;1147;104629;-73
2021/03/02 11:57:26;;;;;;;40.17;21.80;;;;;;;8.83;63.85;101711.89;147428;1147;104454;-76
2021/03/02 12:00:29;;;;;;;38.67;21.57;;;;;;;8.83;63.67;101702.13;147834;1146;104519;-74
2021/03/02 12:03:32;;;;;;;35.67;20.30;;;;;;;8.81;63.43;101705.83;147762;1148;104552;-74
2021/03/02 12:06:35;;;;;;;38.67;21.07;;;;;;;8.80;63.93;101680.19;147755;1147;104458;-74
2021/03/02 12:09:39;;;;;;;35.60;19.62;;;;;;;8.83;63.74;101687.94;147762;1147;104509;-74
2021/03/02 12:12:43;;;;;;;38.65;21.27;;;;;;;8.87;63.61;101686.77;147805;1148;104469;-73
2021/03/02 12:15:47;;;;;;;33.75;18.40;;;;;;;8.88;63.04;101685.82;147805;1147;104449;-74
2021/03/02 12:18:50;;;;;;;39.13;20.60;;;;;;;8.94;64.02;101682.73;147824;1147;104542;-73
2021/03/02 12:21:53;;;;;;;41.92;23.90;;;;;;;9.01;63.61;101678.69;147558;1147;104509;-73
2021/03/02 12:24:56;;;;;;;46.13;23.23;;;;;;;9.08;64.17;101678.24;147267;1147;104577;-75
2021/03/02 12:27:59;;;;;;;45.98;22.52;;;;;;;9.14;63.69;101667.15;147285;1147;104522;-76
2021/03/02 12:31:02;;;;;;;45.60;22.22;;;;;;;9.17;62.62;101677.59;147264;1147;104534;-75
2021/03/02 12:34:06;;;;;;;38.28;20.68;;;;;;;9.18;63.60;101663.30;147261;1147;104540;-77
2021/03/02 12:37:09;;;;;;;44.65;22.37;;;;;;;9.18;64.22;101656.19;147710;1147;104491;-73
2021/03/02 12:40:14;;;;;;;37.60;20.95;;;;;;;9.21;62.95;101658.61;147757;1148;104726;-73
2021/03/02 12:43:19;;;;;;;36.25;20.72;;;;;;;9.25;63.63;101648.59;147805;1148;104482;-78
2021/03/02 12:46:23;;;;;;;132.78;54.55;;;;;;;9.33;63.67;101650.70;147739;1147;104572;-74
2021/03/02 12:49:26;;;;;;;45.60;23.65;;;;;;;9.37;63.35;101641.53;147660;1147;104578;-75
2021/03/02 12:52:29;;;;;;;36.95;20.50;;;;;;;9.40;62.17;101647.49;147788;1146;104473;-73
2021/03/02 12:55:32;;;;;;;35.75;20.08;;;;;;;9.43;63.02;101647.28;147768;1148;104528;-75
2021/03/02 12:58:35;;;;;;;35.68;19.20;;;;;;;9.47;63.19;101645.25;147779;1147;104506;-74
2021/03/02 13:01:39;;;;;;;37.33;20.35;;;;;;;9.52;62.14;101651.07;147751;1147;104423;-74
2021/03/02 13:04:42;;;;;;;32.00;18.70;;;;;;;9.52;60.82;101664.39;147783;1146;104441;-74
2021/03/02 13:07:47;;;;;;;33.80;19.02;;;;;;;9.52;60.89;101647.56;147737;1146;104480;-74
2021/03/02 13:10:50;;;;;;;31.02;18.00;;;;;;;9.55;62.15;101644.69;147334;1148;104854;-75
2021/03/02 13:13:54;;;;;;;33.28;17.82;;;;;;;9.61;61.36;101647.73;147514;1147;104457;-75
2021/03/02 13:16:58;;;;;;;34.65;17.35;;;;;;;9.65;60.04;101648.38;147695;1147;104552;-76
2021/03/02 13:20:02;;;;;;;28.23;15.90;;;;;;;9.68;60.64;101648.16;147736;1147;104460;-74
2021/03/02 13:23:06;;;;;;;30.97;17.32;;;;;;;9.68;59.95;101642.83;147815;1146;104451;-74
2021/03/02 13:26:11;;;;;;;33.13;17.67;;;;;;;9.65;60.24;101644.86;147666;1147;104628;-77
2021/03/02 13:29:18;;;;;;;33.37;16.90;;;;;;;9.70;61.74;101642.69;147589;1147;104528;-74
2021/03/02 13:32:26;;;;;;;29.50;17.10;;;;;;;9.69;57.94;101649.84;147759;1147;104543;-74
2021/03/02 13:35:29;;;;;;;30.52;17.42;;;;;;;9.68;59.59;101644.62;147765;1147;104479;-73
2021/03/02 13:38:34;;;;;;;28.70;16.77;;;;;;;9.73;61.08;101642.47;147782;1147;104463;-74
2021/03/02 13:41:38;;;;;;;30.50;17.95;;;;;;;9.79;59.91;101634.86;147814;1148;104592;-73
2021/03/02 13:44:42;;;;;;;39.03;21.77;;;;;;;9.86;61.23;101637.09;147817;1148;104458;-74
2021/03/02 13:47:46;;;;;;;34.90;18.42;;;;;;;9.85;60.14;101640.70;147569;1146;104486;-72
2021/03/02 13:50:52;;;;;;;31.33;19.07;;;;;;;9.86;59.83;101650.42;147521;1147;104453;-73